Time;durP1;ratioP1;P1;durP2;ratioP2;P2;SDS_P1;SDS_P2;PMS_P1;PMS_P2;Temp;Humidity;BMP_temperature;BMP_pressure;BME280_temperature;BME280_humidity;BME280_pressure;Samples;Min_cycle;Max_cycle;Signal;HPM_P1;HPM_P2
2021/12/17 00:00:44;;;;;;;136.83;25.60;;;6.10;99.90;;;;;;4150841;28;20185;-91
2021/12/17 00:05:09;;;;;;;142.83;24.77;;;6.10;99.90;;;;;;4150745;28;20208;-92
2021/12/17 00:07:14;;;;;;;93.87;25.03;;;6.10;99.90;;;;;;4151021;28;20207;-91
2021/12/17 00:09:15;;;;;;;85.00;24.07;;;6.10;99.90;;;;;;4150988;28;20207;-91
2021/12/17 00:11:16;;;;;;;149.73;25.53;;;6.20;99.90;;;;;;4134630;28;20619;-91
2021/12/17 00:13:18;;;;;;;117.60;24.30;;;6.20;99.90;;;;;;4118422;28;20182;-91
2021/12/17 00:15:19;;;;;;;73.60;24.57;;;6.20;99.90;;;;;;4118270;28;20196;-92
2021/12/17 00:17:26;;;;;;;96.50;25.83;;;6.20;99.90;;;;;;4134666;28;20221;-93
2021/12/17 00:48:53;;;;;;;121.63;30.23;;;5.60;99.90;;;;;;4150208;28;20176;-91
2021/12/17 00:53:18;;;;;;;129.97;25.60;;;5.60;99.90;;;;;;4150396;28;20173;-91
2021/12/17 00:55:19;;;;;;;177.63;24.93;;;5.50;99.90;;;;;;4150309;28;20201;-92
2021/12/17 00:57:28;;;;;;;59.43;10.57;;;5.70;99.90;;;;;;4134019;28;20197;-91
2021/12/17 00:59:29;;;;;;;83.13;21.40;;;5.90;99.90;;;;;;4117823;28;20268;-91
2021/12/17 01:01:30;;;;;;;112.10;19.47;;;5.80;99.90;;;;;;4133900;28;20170;-92
2021/12/17 01:03:31;;;;;;;162.00;31.23;;;5.80;99.90;;;;;;4117775;28;20221;-92
2021/12/17 01:05:33;;;;;;;214.03;34.70;;;5.80;99.90;;;;;;4133767;28;20696;-91
2021/12/17 01:07:35;;;;;;;144.03;31.50;;;5.90;99.90;;;;;;4150087;28;20598;-92
2021/12/17 01:09:39;;;;;;;132.20;33.00;;;5.80;99.90;;;;;;4149740;28;20208;-91
2021/12/17 01:11:41;;;;;;;94.90;32.80;;;5.80;99.90;;;;;;4149977;28;20180;-90
2021/12/17 01:14:10;;;;;;;67.23;28.03;;;5.70;99.90;;;;;;4146302;28;20661;-91
2021/12/17 01:16:30;;;;;;;88.53;27.70;;;5.50;99.90;;;;;;4136415;28;20260;-91
2021/12/17 01:36:40;;;;;;;180.03;25.67;;;5.70;99.90;;;;;;4107170;28;20188;-91
2021/12/17 01:41:45;;;;;;;179.40;25.27;;;5.50;99.90;;;;;;4149241;28;20176;-91
2021/12/17 01:43:41;;;;;;;141.87;25.13;;;5.40;99.90;;;;;;4132973;28;20589;-91
2021/12/17 01:45:43;;;;;;;133.10;31.37;;;5.30;99.90;;;;;;4149209;28;20193;-91
2021/12/17 01:47:44;;;;;;;133.93;26.77;;;5.30;99.90;;;;;;4149336;28;20279;-90
2021/12/17 01:56:49;;;;;;;114.30;25.17;;;5.00;99.90;;;;;;4149468;28;20184;-91
2021/12/17 02:01:10;;;;;;;71.10;19.77;;;5.00;99.90;;;;;;4149260;28;20226;-91
2021/12/17 02:03:11;;;;;;;51.43;16.80;;;5.10;99.90;;;;;;4133257;28;20174;-91
2021/12/17 02:05:14;;;;;;;36.83;17.20;;;5.00;99.90;;;;;;4149261;28;20271;-91
2021/12/17 02:07:15;;;;;;;44.53;19.10;;;5.10;99.90;;;;;;4148857;28;20177;-91
2021/12/17 02:23:20;;;;;;;59.73;13.87;;;5.00;99.90;;;;;;4148831;28;20173;-91
2021/12/17 02:32:13;;;;;;;154.73;15.53;;;4.60;99.90;;;;;;4148771;28;20211;-91
2021/12/17 02:36:27;;;;;;;194.97;19.13;;;4.20;99.90;;;;;;4148503;28;20604;-91
2021/12/17 02:38:30;;;;;;;269.53;19.10;;;4.00;99.90;;;;;;4116236;28;20687;-91
2021/12/17 02:46:02;;;;;;;165.23;21.90;;;4.30;99.90;;;;;;4148456;28;20239;-91
2021/12/17 02:48:11;;;;;;;184.83;20.83;;;4.50;99.90;;;;;;4132432;28;20177;-91
2021/12/17 02:50:11;;;;;;;196.57;23.87;;;4.60;99.90;;;;;;4148297;28;20323;-90
2021/12/17 02:52:14;;;;;;;241.03;23.90;;;4.80;99.90;;;;;;4131555;28;20294;-90
2021/12/17 02:54:15;;;;;;;194.20;25.33;;;4.90;99.90;;;;;;4132031;28;20178;-91
2021/12/17 02:56:16;;;;;;;188.40;22.47;;;4.80;99.90;;;;;;4116224;28;20217;-91
2021/12/17 02:58:17;;;;;;;82.80;17.87;;;4.90;99.90;;;;;;4132188;28;20177;-92
2021/12/17 03:00:18;;;;;;;130.50;19.60;;;4.80;99.90;;;;;;4131912;28;20171;-92
2021/12/17 03:02:24;;;;;;;112.13;19.37;;;4.80;99.90;;;;;;4132238;28;20205;-91
2021/12/17 03:04:27;;;;;;;186.57;19.10;;;4.90;99.90;;;;;;4132020;28;20309;-91
2021/12/17 03:06:28;;;;;;;147.50;20.47;;;5.10;99.90;;;;;;4132152;28;20201;-91
2021/12/17 03:08:30;;;;;;;153.03;21.43;;;5.10;99.90;;;;;;4132133;28;20178;-91
2021/12/17 03:10:30;;;;;;;98.37;21.33;;;5.20;99.90;;;;;;4132195;28;20213;-91
2021/12/17 03:15:07;;;;;;;117.63;23.03;;;5.30;99.90;;;;;;4128514;28;20261;-91
2021/12/17 03:17:12;;;;;;;220.23;26.67;;;5.30;99.90;;;;;;4115819;28;20173;-92
2021/12/17 03:19:28;;;;;;;85.17;22.63;;;5.30;99.90;;;;;;4116081;28;20182;-91
2021/12/17 03:23:50;;;;;;;133.67;21.70;;;4.90;99.90;;;;;;4132034;28;20180;-92
2021/12/17 03:25:58;;;;;;;162.17;22.37;;;4.90;99.90;;;;;;4132374;28;20252;-91
2021/12/17 03:27:59;;;;;;;60.13;20.70;;;4.80;99.90;;;;;;4115948;28;20174;-91
2021/12/17 03:30:00;;;;;;;98.37;20.60;;;4.80;99.90;;;;;;4131830;28;20235;-94
2021/12/17 03:32:01;;;;;;;167.97;23.83;;;4.70;99.90;;;;;;4148254;28;20700;-92
2021/12/17 03:36:15;;;;;;;100.63;19.80;;;4.90;99.90;;;;;;4148185;28;20191;-90
2021/12/17 03:38:17;;;;;;;99.67;21.53;;;4.90;99.90;;;;;;4148305;28;20169;-91
2021/12/17 03:40:20;;;;;;;77.43;21.37;;;4.90;99.90;;;;;;4148088;28;20530;-91
2021/12/17 03:42:21;;;;;;;223.53;25.03;;;4.60;99.90;;;;;;4131865;28;20177;-91
2021/12/17 03:44:21;;;;;;;136.53;24.97;;;4.50;99.90;;;;;;4131749;28;20512;-91
2021/12/17 03:46:44;;;;;;;213.03;25.80;;;4.70;99.90;;;;;;4134340;28;20261;-91
2021/12/17 03:48:45;;;;;;;99.90;22.93;;;4.90;99.90;;;;;;4147820;28;20173;-92
2021/12/17 03:50:46;;;;;;;119.63;25.33;;;5.00;99.90;;;;;;4131722;28;20216;-91
2021/12/17 03:52:49;;;;;;;144.63;26.93;;;4.90;99.90;;;;;;4131720;28;20601;-90
2021/12/17 03:54:50;;;;;;;223.10;27.93;;;4.70;99.90;;;;;;4115613;28;20198;-91
2021/12/17 03:56:52;;;;;;;222.43;28.57;;;4.50;99.90;;;;;;4131918;28;20170;-91
2021/12/17 03:58:55;;;;;;;138.33;24.63;;;4.50;99.90;;;;;;4148051;28;20169;-91
2021/12/17 04:00:56;;;;;;;335.73;32.90;;;4.70;99.90;;;;;;4131675;28;20282;-91
2021/12/17 04:02:58;;;;;;;199.03;30.10;;;4.80;99.90;;;;;;4131892;28;20169;-91
2021/12/17 04:05:13;;;;;;;267.27;26.77;;;4.90;99.90;;;;;;4149135;28;20192;-91
2021/12/17 04:07:14;;;;;;;290.70;27.87;;;5.00;99.90;;;;;;4134923;28;20158;-91
2021/12/17 04:09:33;;;;;;;195.33;26.10;;;5.10;99.90;;;;;;4137203;28;20736;-91
2021/12/17 04:11:43;;;;;;;142.13;21.80;;;5.10;99.90;;;;;;4149760;28;20176;-91
2021/12/17 04:13:54;;;;;;;126.00;23.90;;;5.20;99.90;;;;;;4135268;28;20614;-91
2021/12/17 04:16:07;;;;;;;184.20;24.67;;;5.40;99.90;;;;;;4150614;28;20193;-91
2021/12/17 04:18:10;;;;;;;142.57;26.40;;;5.80;99.90;;;;;;4150720;28;20596;-91
2021/12/17 04:20:11;;;;;;;141.00;26.10;;;5.90;99.90;;;;;;4150992;28;20193;-91
2021/12/17 04:22:13;;;;;;;106.93;26.80;;;5.80;99.90;;;;;;4150777;28;20168;-91
2021/12/17 04:24:14;;;;;;;228.27;31.57;;;5.50;99.90;;;;;;4134796;28;20208;-90
2021/12/17 04:26:17;;;;;;;112.47;32.13;;;5.60;99.90;;;;;;4118640;28;20174;-91
2021/12/17 04:28:20;;;;;;;236.63;32.93;;;6.00;99.90;;;;;;4150594;28;20224;-91
2021/12/17 04:30:20;;;;;;;161.17;33.50;;;6.20;99.90;;;;;;4150464;28;20574;-91
2021/12/17 04:32:21;;;;;;;140.93;31.37;;;6.40;99.90;;;;;;4134546;28;20177;-91
2021/12/17 04:34:25;;;;;;;227.80;31.37;;;6.10;99.90;;;;;;4118078;28;20186;-91
2021/12/17 04:36:30;;;;;;;87.83;27.67;;;6.00;99.90;;;;;;4134233;28;20720;-91
2021/12/17 04:38:32;;;;;;;158.47;33.60;;;5.90;99.90;;;;;;4134086;28;20224;-92
2021/12/17 04:40:36;;;;;;;188.23;34.23;;;5.40;99.90;;;;;;4134212;28;20177;-91
2021/12/17 04:42:56;;;;;;;170.20;28.20;;;5.10;99.90;;;;;;4118083;28;20340;-91
2021/12/17 04:45:00;;;;;;;177.60;29.00;;;5.00;99.90;;;;;;4134037;28;20666;-91
2021/12/17 04:58:29;;;;;;;178.30;24.03;;;5.50;99.90;;;;;;4149854;28;20181;-91
2021/12/17 05:00:31;;;;;;;107.93;25.33;;;5.40;99.90;;;;;;4117779;28;20182;-91
2021/12/17 05:02:47;;;;;;;125.00;22.23;;;5.20;99.90;;;;;;4135382;28;20525;-90
2021/12/17 05:04:49;;;;;;;112.27;23.43;;;5.10;99.90;;;;;;4117689;28;20226;-91
2021/12/17 05:06:50;;;;;;;124.97;25.97;;;5.20;99.90;;;;;;4117695;28;20262;-91
2021/12/17 05:08:57;;;;;;;104.07;24.77;;;5.50;99.90;;;;;;4133636;28;20264;-91
2021/12/17 05:11:21;;;;;;;78.07;25.13;;;5.90;99.90;;;;;;4117766;28;20292;-91
2021/12/17 05:18:16;;;;;;;91.43;21.20;;;5.70;99.90;;;;;;4150120;28;20179;-91
2021/12/17 05:20:39;;;;;;;100.27;23.23;;;5.40;99.90;;;;;;4134287;28;20192;-91
2021/12/17 05:22:43;;;;;;;100.57;21.97;;;5.40;99.90;;;;;;4117558;28;20174;-91
2021/12/17 05:24:44;;;;;;;104.70;24.67;;;5.50;99.90;;;;;;4133439;28;20601;-91
2021/12/17 05:26:44;;;;;;;131.97;24.27;;;5.90;99.90;;;;;;4117592;28;20257;-91
2021/12/17 05:28:47;;;;;;;57.23;22.57;;;6.50;99.90;;;;;;4117459;28;20647;-91
2021/12/17 05:30:48;;;;;;;73.13;23.80;;;6.60;99.90;;;;;;4133432;28;20206;-91
2021/12/17 05:32:49;;;;;;;55.90;21.63;;;6.50;99.90;;;;;;4117209;28;20189;-91
2021/12/17 05:34:50;;;;;;;61.53;20.00;;;6.40;99.90;;;;;;4133252;28;20550;-91
2021/12/17 05:36:51;;;;;;;44.77;17.80;;;6.20;99.90;;;;;;4133486;28;20321;-91
2021/12/17 05:38:57;;;;;;;78.27;21.63;;;6.30;99.90;;;;;;4133548;28;20241;-91
2021/12/17 05:40:58;;;;;;;78.13;23.47;;;6.30;99.90;;;;;;4117751;28;20219;-90
2021/12/17 05:43:02;;;;;;;57.53;23.07;;;6.30;99.90;;;;;;4118106;28;20635;-91
2021/12/17 05:45:32;;;;;;;73.93;25.37;;;5.60;99.90;;;;;;4133797;28;20197;-90
2021/12/17 05:47:33;;;;;;;45.03;21.50;;;5.20;99.90;;;;;;4117361;28;20236;-91
2021/12/17 05:49:34;;;;;;;94.10;27.33;;;4.90;99.90;;;;;;4133251;28;20209;-91
2021/12/17 05:51:36;;;;;;;121.43;27.53;;;5.10;99.90;;;;;;4149305;28;20184;-94
2021/12/17 05:53:37;;;;;;;130.97;27.20;;;5.50;99.90;;;;;;4133083;28;20173;-90
2021/12/17 05:55:39;;;;;;;99.23;28.10;;;5.80;99.90;;;;;;4149100;28;20254;-90
2021/12/17 05:57:40;;;;;;;197.73;29.07;;;6.00;99.90;;;;;;4132521;28;20263;-90
2021/12/17 05:59:40;;;;;;;184.77;30.17;;;6.00;99.90;;;;;;4132811;28;20268;-90
2021/12/17 06:01:43;;;;;;;236.93;30.80;;;5.90;99.90;;;;;;4133082;28;20189;-91
2021/12/17 06:03:44;;;;;;;198.53;29.40;;;5.90;99.90;;;;;;4116869;28;20265;-91
2021/12/17 06:05:46;;;;;;;96.93;29.00;;;6.00;99.90;;;;;;4133090;28;20256;-91
2021/12/17 06:07:47;;;;;;;150.53;28.70;;;6.20;99.90;;;;;;4149074;28;20175;-91
2021/12/17 06:09:48;;;;;;;131.87;29.97;;;6.10;99.90;;;;;;4132642;28;20205;-91
2021/12/17 06:11:55;;;;;;;110.13;28.17;;;6.10;99.90;;;;;;4148365;28;20176;-91
2021/12/17 06:13:56;;;;;;;127.87;28.83;;;6.00;99.90;;;;;;4132639;28;20216;-91
2021/12/17 06:16:01;;;;;;;151.03;28.63;;;6.00;99.90;;;;;;4133210;28;20197;-91
2021/12/17 06:18:02;;;;;;;144.70;30.47;;;5.90;99.90;;;;;;4132585;28;20181;-91
2021/12/17 06:20:06;;;;;;;140.97;30.07;;;5.80;99.90;;;;;;4116481;28;20269;-94
2021/12/17 06:22:07;;;;;;;160.60;32.97;;;5.60;99.90;;;;;;4116612;28;20178;-91
2021/12/17 06:24:08;;;;;;;114.00;30.27;;;5.60;99.90;;;;;;4132345;28;20211;-91
2021/12/17 06:26:10;;;;;;;95.40;27.10;;;5.50;99.90;;;;;;4116344;28;20604;-92
2021/12/17 06:28:14;;;;;;;171.03;30.37;;;5.50;99.90;;;;;;4115875;28;20173;-90
2021/12/17 06:30:16;;;;;;;112.47;30.63;;;5.50;99.90;;;;;;4116462;28;20301;-90
2021/12/17 06:32:18;;;;;;;127.33;32.10;;;5.60;99.90;;;;;;4132358;28;20174;-90
2021/12/17 06:34:19;;;;;;;116.90;28.60;;;5.60;99.90;;;;;;4116315;28;20241;-91
2021/12/17 06:36:20;;;;;;;149.60;32.07;;;5.50;99.90;;;;;;4132498;28;20173;-90
2021/12/17 06:38:22;;;;;;;177.60;33.73;;;5.50;99.90;;;;;;4148529;28;20263;-94
2021/12/17 06:40:22;;;;;;;125.47;31.97;;;5.50;99.90;;;;;;4116227;28;20764;-90
2021/12/17 06:42:26;;;;;;;174.87;33.97;;;5.40;99.90;;;;;;4132333;28;20174;-92
2021/12/17 06:44:28;;;;;;;192.57;34.40;;;5.50;99.90;;;;;;4148181;28;20177;-91
2021/12/17 06:48:31;;;;;;;210.63;33.93;;;5.60;99.90;;;;;;4132099;28;20170;-91
2021/12/17 07:06:54;;;;;;;315.87;29.30;;;6.00;99.90;;;;;;4149340;28;20205;-91
2021/12/17 07:33:40;;;;;;;356.43;39.40;;;6.20;99.90;;;;;;4147998;28;20192;-91
2021/12/17 07:36:14;;;;;;;307.50;37.43;;;6.40;99.90;;;;;;4147917;28;20621;-92
2021/12/17 07:40:42;;;;;;;331.37;37.33;;;6.50;99.90;;;;;;4151284;28;20169;-91
2021/12/17 07:42:44;;;;;;;370.40;42.43;;;6.60;99.90;;;;;;4151513;28;20700;-92
2021/12/17 07:44:55;;;;;;;358.77;39.83;;;6.70;99.90;;;;;;4135072;28;20186;-91
2021/12/17 07:46:59;;;;;;;393.77;43.40;;;6.70;99.90;;;;;;4135348;28;20237;-91
2021/12/17 07:48:59;;;;;;;278.43;37.63;;;6.80;99.90;;;;;;4151167;28;20177;-92
2021/12/17 07:51:03;;;;;;;282.90;39.23;;;6.80;99.90;;;;;;4134884;28;20720;-91
2021/12/17 07:53:17;;;;;;;410.00;46.70;;;6.90;99.90;;;;;;4120427;28;20644;-91
2021/12/17 07:55:28;;;;;;;290.20;36.03;;;6.90;99.90;;;;;;4119880;28;20619;-92
2021/12/17 07:57:30;;;;;;;294.83;38.87;;;7.00;99.90;;;;;;4135039;28;20184;-93
2021/12/17 07:59:31;;;;;;;275.07;35.83;;;6.70;99.90;;;;;;4150980;28;20173;-91
2021/12/17 08:01:32;;;;;;;333.33;39.97;;;6.70;99.90;;;;;;4134808;28;20181;-92
2021/12/17 08:03:33;;;;;;;357.13;35.93;;;6.60;99.90;;;;;;4118872;28;20170;-92
2021/12/17 08:05:36;;;;;;;347.53;35.60;;;6.60;99.90;;;;;;4134751;28;20240;-92
2021/12/17 08:07:37;;;;;;;295.97;34.20;;;6.60;99.90;;;;;;4151073;28;20184;-94
2021/12/17 08:09:40;;;;;;;329.77;36.37;;;6.70;99.90;;;;;;4134774;28;20517;-92
2021/12/17 08:11:41;;;;;;;365.60;35.67;;;6.70;99.90;;;;;;4150764;28;20173;-92
2021/12/17 08:13:45;;;;;;;371.47;37.77;;;6.70;99.90;;;;;;4118609;28;20237;-92
2021/12/17 08:16:03;;;;;;;195.87;30.67;;;6.70;99.90;;;;;;4118366;28;20201;-92
2021/12/17 08:25:08;;;;;;;72.10;21.83;;;5.80;99.90;;;;;;4150571;28;20288;-92
2021/12/17 08:27:24;;;;;;;301.87;37.20;;;5.30;99.90;;;;;;4134424;28;20173;-91
2021/12/17 08:31:34;;;;;;;240.10;36.10;;;5.40;99.90;;;;;;4134383;28;20185;-92
2021/12/17 08:33:35;;;;;;;196.67;31.83;;;5.70;99.90;;;;;;4134225;28;20519;-92
2021/12/17 08:35:37;;;;;;;205.00;30.70;;;5.80;99.90;;;;;;4133967;28;20243;-92
2021/12/17 08:37:44;;;;;;;333.73;40.00;;;5.80;99.90;;;;;;4149787;28;20176;-91
2021/12/17 08:39:44;;;;;;;166.97;32.23;;;5.80;99.90;;;;;;4118230;28;21159;-92
2021/12/17 08:42:05;;;;;;;270.97;38.33;;;6.00;99.90;;;;;;4136862;28;20265;-92
2021/12/17 08:44:07;;;;;;;335.07;36.13;;;5.80;99.90;;;;;;4150592;28;20181;-92
2021/12/17 08:46:12;;;;;;;207.53;33.17;;;5.90;99.90;;;;;;4150458;28;20193;-92
2021/12/17 08:48:32;;;;;;;275.00;34.70;;;6.00;99.90;;;;;;4137144;28;20184;-92
2021/12/17 08:50:56;;;;;;;164.13;29.47;;;6.00;99.90;;;;;;4141707;28;20209;-92
2021/12/17 08:52:57;;;;;;;131.93;28.03;;;6.00;99.90;;;;;;4150271;28;20596;-92
2021/12/17 08:54:58;;;;;;;329.97;35.77;;;6.00;99.90;;;;;;4133971;28;20189;-92
2021/12/17 08:56:59;;;;;;;253.80;35.37;;;6.10;99.90;;;;;;4133985;28;20197;-93
2021/12/17 08:59:05;;;;;;;286.07;37.77;;;6.50;99.90;;;;;;4118038;28;20182;-92
2021/12/17 09:01:24;;;;;;;313.17;38.47;;;6.70;99.90;;;;;;4136254;28;20211;-92
2021/12/17 09:03:25;;;;;;;234.80;32.33;;;6.50;99.90;;;;;;4150183;28;20268;-92
2021/12/17 09:05:49;;;;;;;374.97;39.83;;;6.60;99.90;;;;;;4136648;28;20193;-93
2021/12/17 09:07:54;;;;;;;173.37;28.33;;;6.70;99.90;;;;;;4149517;28;20578;-93
2021/12/17 09:10:12;;;;;;;277.70;34.27;;;6.60;99.90;;;;;;4135770;28;20217;-92
2021/12/17 09:12:14;;;;;;;279.47;33.77;;;6.50;99.90;;;;;;4150136;28;20732;-92
2021/12/17 09:14:19;;;;;;;289.57;34.67;;;6.50;99.90;;;;;;4149896;28;20177;-92
2021/12/17 09:16:25;;;;;;;231.27;32.23;;;6.60;99.90;;;;;;4134024;28;20169;-92
2021/12/17 09:18:27;;;;;;;195.23;29.87;;;6.50;99.90;;;;;;4149824;28;20177;-92
2021/12/17 09:20:36;;;;;;;377.97;39.60;;;6.70;99.90;;;;;;4133624;28;20704;-92
2021/12/17 09:22:37;;;;;;;271.07;35.13;;;7.20;99.90;;;;;;4117476;28;20693;-93
2021/12/17 09:24:41;;;;;;;285.33;36.93;;;7.40;99.90;;;;;;4133409;28;20197;-92
2021/12/17 09:27:04;;;;;;;429.57;42.30;;;7.40;99.90;;;;;;4149651;28;20184;-92
2021/12/17 09:29:25;;;;;;;431.60;41.93;;;7.70;99.90;;;;;;4149716;28;20271;-93
2021/12/17 09:31:26;;;;;;;561.23;44.23;;;8.20;99.90;;;;;;4149781;28;20223;-92
2021/12/17 09:33:27;;;;;;;514.20;44.63;;;8.20;99.90;;;;;;4133124;28;20243;-93
2021/12/17 09:35:27;;;;;;;460.73;42.20;;;8.00;99.90;;;;;;4149217;28;20284;-93
2021/12/17 09:37:28;;;;;;;356.43;37.33;;;8.30;99.90;;;;;;4117290;28;20198;-92
2021/12/17 09:39:29;;;;;;;497.83;45.03;;;8.40;99.90;;;;;;4133764;28;20182;-92
2021/12/17 09:41:30;;;;;;;512.20;44.83;;;8.70;99.90;;;;;;4133177;28;20177;-92
2021/12/17 09:43:32;;;;;;;504.80;45.93;;;8.70;99.90;;;;;;4117632;28;20175;-93
2021/12/17 09:45:33;;;;;;;473.43;43.40;;;8.40;99.90;;;;;;4117192;28;20209;-93
2021/12/17 09:47:34;;;;;;;357.53;37.63;;;8.40;99.90;;;;;;4133173;28;20665;-93
2021/12/17 09:49:35;;;;;;;502.07;43.53;;;8.30;99.90;;;;;;4117155;28;20241;-92
2021/12/17 09:51:35;;;;;;;518.40;46.13;;;8.40;99.90;;;;;;4132769;28;20185;-91
2021/12/17 09:53:36;;;;;;;488.43;46.80;;;8.60;99.90;;;;;;4117094;28;20205;-92
2021/12/17 09:55:37;;;;;;;536.83;46.63;;;8.70;99.90;;;;;;4132855;28;20248;-92
2021/12/17 09:57:38;;;;;;;584.30;52.83;;;8.70;99.90;;;;;;4116906;28;20166;-93
2021/12/17 09:59:39;;;;;;;572.27;49.10;;;8.80;99.90;;;;;;4133046;28;20177;-93
2021/12/17 10:01:42;;;;;;;259.20;35.73;;;8.90;99.90;;;;;;4117047;28;20170;-93
2021/12/17 10:03:43;;;;;;;590.77;46.20;;;8.70;99.90;;;;;;4133107;28;20173;-93
2021/12/17 10:05:44;;;;;;;573.43;51.13;;;8.80;99.90;;;;;;4116830;28;20198;-93
2021/12/17 10:07:52;;;;;;;565.07;51.53;;;8.90;99.90;;;;;;4133064;28;20245;-93
2021/12/17 10:09:57;;;;;;;639.83;52.03;;;8.80;99.90;;;;;;4132814;28;20212;-92
2021/12/17 10:12:03;;;;;;;558.17;47.40;;;8.80;99.90;;;;;;4132630;28;20178;-92
2021/12/17 10:14:18;;;;;;;587.97;48.03;;;8.80;99.90;;;;;;4132772;28;20174;-93
2021/12/17 10:16:20;;;;;;;575.93;50.37;;;8.80;99.90;;;;;;4132589;28;20181;-92
2021/12/17 10:18:35;;;;;;;521.30;49.17;;;8.80;99.90;;;;;;4132644;28;20170;-92
2021/12/17 10:21:01;;;;;;;518.50;56.03;;;8.60;99.90;;;;;;4132797;28;20181;-92
2021/12/17 10:23:06;;;;;;;554.30;51.80;;;8.50;99.90;;;;;;4148901;28;20232;-93
2021/12/17 10:25:10;;;;;;;452.70;50.73;;;8.40;99.90;;;;;;4132333;28;20201;-93
2021/12/17 10:27:26;;;;;;;437.33;50.00;;;8.30;99.90;;;;;;4132468;28;20595;-91
2021/12/17 10:29:28;;;;;;;420.10;48.70;;;8.30;99.90;;;;;;4132470;28;20228;-92
2021/12/17 10:31:31;;;;;;;438.23;50.13;;;8.20;99.90;;;;;;4116198;28;20312;-93
2021/12/17 10:33:34;;;;;;;280.20;46.30;;;8.10;99.90;;;;;;4132263;28;20216;-93
2021/12/17 10:35:38;;;;;;;315.90;47.63;;;7.90;99.90;;;;;;4132050;28;20201;-94
2021/12/17 10:37:54;;;;;;;304.77;47.13;;;7.80;99.90;;;;;;4132136;28;20174;-93
2021/12/17 10:39:55;;;;;;;288.40;46.20;;;7.80;99.90;;;;;;4132163;28;20225;-93
2021/12/17 10:41:56;;;;;;;284.13;46.70;;;7.80;99.90;;;;;;4116316;28;20253;-94
2021/12/17 10:44:07;;;;;;;254.00;45.13;;;7.90;99.90;;;;;;4132374;28;20173;-93
2021/12/17 10:48:24;;;;;;;261.70;46.00;;;8.10;99.90;;;;;;4148659;28;20204;-93
2021/12/17 10:50:25;;;;;;;286.70;46.80;;;8.10;99.90;;;;;;4116443;28;20301;-94
2021/12/17 10:52:36;;;;;;;330.93;48.57;;;8.20;99.90;;;;;;4132168;28;20534;-92
2021/12/17 10:54:37;;;;;;;282.60;46.23;;;8.20;99.90;;;;;;4132226;28;20201;-92
2021/12/17 10:56:42;;;;;;;285.20;47.73;;;8.20;99.90;;;;;;4116211;28;20546;-93
2021/12/17 10:59:05;;;;;;;301.23;47.17;;;8.20;99.90;;;;;;4148628;28;20172;-93
2021/12/17 11:01:07;;;;;;;309.17;46.70;;;8.20;99.90;;;;;;4132134;28;20170;-92
2021/12/17 11:03:07;;;;;;;353.47;48.67;;;8.20;99.90;;;;;;4116208;28;20221;-93
2021/12/17 11:05:13;;;;;;;328.20;46.87;;;8.30;99.90;;;;;;4132010;28;20198;-93
2021/12/17 11:07:17;;;;;;;330.23;47.73;;;8.40;99.90;;;;;;4132108;28;20634;-93
2021/12/17 11:10:00;;;;;;;362.57;49.30;;;8.60;99.90;;;;;;4132236;28;20324;-93
2021/12/17 11:12:24;;;;;;;399.07;51.43;;;8.80;99.90;;;;;;4132068;28;20276;-93
2021/12/17 11:14:25;;;;;;;356.40;49.20;;;8.90;99.90;;;;;;4147846;28;20184;-95
2021/12/17 11:16:27;;;;;;;454.63;53.37;;;8.80;99.90;;;;;;4116086;28;20180;-93
2021/12/17 11:18:27;;;;;;;360.60;50.13;;;8.80;99.90;;;;;;4132153;28;20205;-93
2021/12/17 11:20:32;;;;;;;401.67;54.47;;;8.70;99.90;;;;;;4132353;28;20561;-93
2021/12/17 11:22:33;;;;;;;377.40;51.47;;;8.60;99.90;;;;;;4148168;28;20173;-93
2021/12/17 11:24:35;;;;;;;452.00;56.03;;;8.50;99.90;;;;;;4131877;28;20241;-92
2021/12/17 11:26:36;;;;;;;458.47;58.73;;;8.50;99.90;;;;;;4132035;28;20181;-95
2021/12/17 11:28:38;;;;;;;404.90;52.90;;;8.60;99.90;;;;;;4132259;28;20229;-93
2021/12/17 11:30:42;;;;;;;490.70;57.97;;;8.60;99.90;;;;;;4116075;28;20272;-93
2021/12/17 11:32:45;;;;;;;466.37;56.33;;;8.60;99.90;;;;;;4115963;28;20170;-93
2021/12/17 11:34:47;;;;;;;439.03;53.40;;;8.60;99.90;;;;;;4132177;28;20686;-93
2021/12/17 11:36:48;;;;;;;441.13;54.37;;;8.70;99.90;;;;;;4115828;28;20186;-93
2021/12/17 11:39:01;;;;;;;453.57;55.47;;;8.70;99.90;;;;;;4116095;28;20659;-93
2021/12/17 11:41:18;;;;;;;523.20;56.97;;;8.70;99.90;;;;;;4116000;28;20248;-93
2021/12/17 11:43:51;;;;;;;488.33;58.37;;;8.70;99.90;;;;;;4132433;28;20180;-94
2021/12/17 11:46:07;;;;;;;466.13;54.07;;;8.80;99.90;;;;;;4115566;28;20202;-93
2021/12/17 11:48:22;;;;;;;485.93;55.87;;;8.70;99.90;;;;;;4117171;28;20182;-95
2021/12/17 11:50:24;;;;;;;494.50;58.20;;;8.60;99.90;;;;;;4116240;28;20262;-93
2021/12/17 11:52:39;;;;;;;549.67;58.63;;;8.60;99.90;;;;;;4115852;28;20259;-92
2021/12/17 11:54:40;;;;;;;439.97;52.83;;;8.60;99.90;;;;;;4115605;28;20249;-92
2021/12/17 11:56:51;;;;;;;485.50;54.83;;;8.60;99.90;;;;;;4115614;28;20272;-93
2021/12/17 11:58:55;;;;;;;552.47;58.77;;;8.50;99.90;;;;;;4131666;28;20240;-95
2021/12/17 12:00:56;;;;;;;522.17;59.07;;;8.40;99.90;;;;;;4131553;28;20186;-93
2021/12/17 12:03:11;;;;;;;528.80;59.87;;;8.50;99.90;;;;;;4115564;28;20733;-93
2021/12/17 12:05:36;;;;;;;494.30;59.17;;;8.60;99.90;;;;;;4135662;28;20193;-93
2021/12/17 12:07:37;;;;;;;431.27;53.40;;;8.60;99.90;;;;;;4132319;28;20276;-93
2021/12/17 12:09:57;;;;;;;433.40;56.17;;;8.50;99.90;;;;;;4131420;28;20169;-93
2021/12/17 12:12:12;;;;;;;431.57;52.87;;;8.50;99.90;;;;;;4147810;28;20288;-93
2021/12/17 12:14:31;;;;;;;422.97;52.83;;;8.50;99.90;;;;;;4131515;28;20181;-93
2021/12/17 12:16:40;;;;;;;536.10;60.87;;;8.40;99.90;;;;;;4115466;28;20241;-93
2021/12/17 12:19:11;;;;;;;455.50;58.93;;;8.50;99.90;;;;;;4115672;28;20194;-94
2021/12/17 12:21:15;;;;;;;508.17;59.27;;;8.50;99.90;;;;;;4131428;28;20662;-93
2021/12/17 12:23:36;;;;;;;463.77;56.23;;;8.40;99.90;;;;;;4115051;28;20259;-93
2021/12/17 12:25:37;;;;;;;564.93;63.20;;;8.40;99.90;;;;;;4115856;28;20753;-94
2021/12/17 12:27:46;;;;;;;455.70;58.80;;;8.40;99.90;;;;;;4134551;28;20249;-94
2021/12/17 12:29:47;;;;;;;421.70;57.67;;;8.50;99.90;;;;;;4118195;28;20185;-93
2021/12/17 12:31:53;;;;;;;461.27;57.93;;;8.50;99.90;;;;;;4134297;28;20546;-94
2021/12/17 12:34:12;;;;;;;456.27;57.63;;;8.50;99.90;;;;;;4118079;28;20297;-93
2021/12/17 12:36:15;;;;;;;485.97;60.87;;;8.50;99.90;;;;;;4118233;28;20265;-93
2021/12/17 12:38:20;;;;;;;377.60;54.03;;;8.60;99.90;;;;;;4134237;28;20204;-94
2021/12/17 12:40:34;;;;;;;451.67;60.57;;;8.60;99.90;;;;;;4118159;28;20170;-94
2021/12/17 12:42:36;;;;;;;526.23;63.23;;;8.50;99.90;;;;;;4117828;28;20240;-93
2021/12/17 12:44:57;;;;;;;539.37;66.20;;;8.50;99.90;;;;;;4117662;28;20190;-94
2021/12/17 12:47:35;;;;;;;340.27;54.93;;;8.40;99.90;;;;;;4110975;28;20197;-95
2021/12/17 12:49:56;;;;;;;422.23;60.43;;;8.40;99.90;;;;;;4102304;28;20178;-95
2021/12/17 12:52:29;;;;;;;437.03;60.13;;;8.40;99.90;;;;;;4133791;28;20189;-93
2021/12/17 12:54:29;;;;;;;443.60;57.70;;;8.40;99.90;;;;;;4133959;28;20174;-93
2021/12/17 12:56:30;;;;;;;380.43;55.27;;;8.40;99.90;;;;;;4133960;28;20180;-93
2021/12/17 12:58:39;;;;;;;279.90;50.00;;;8.50;99.90;;;;;;4150603;28;20172;-93
2021/12/17 13:00:59;;;;;;;298.17;49.53;;;8.60;99.90;;;;;;4150091;28;20267;-94
2021/12/17 13:04:01;;;;;;;286.67;48.03;;;8.60;99.90;;;;;;4134013;28;20178;-93
2021/12/17 13:06:03;;;;;;;219.73;42.37;;;8.70;99.90;;;;;;4140322;28;20205;-95
2021/12/17 13:08:30;;;;;;;216.90;42.13;;;8.60;99.90;;;;;;4150559;28;20219;-93
2021/12/17 13:10:54;;;;;;;212.83;41.43;;;8.60;99.90;;;;;;4149894;28;20231;-93
2021/12/17 13:14:03;;;;;;;210.57;40.80;;;8.60;99.90;;;;;;4149948;28;20630;-96
2021/12/17 13:17:28;;;;;;;189.13;38.10;;;8.60;99.90;;;;;;4081547;28;20199;-95
2021/12/17 13:26:47;;;;;;;178.10;38.27;;;8.70;99.90;;;;;;4125822;28;20189;-94
2021/12/17 13:29:08;;;;;;;177.47;37.87;;;8.70;99.90;;;;;;4134031;28;20537;-93
2021/12/17 13:31:34;;;;;;;184.70;38.90;;;8.70;99.90;;;;;;4133630;28;20292;-94
2021/12/17 13:34:20;;;;;;;186.27;39.07;;;8.70;99.90;;;;;;4126735;28;20193;-95
2021/12/17 13:36:21;;;;;;;184.37;39.10;;;8.80;99.90;;;;;;4132377;28;20669;-93
2021/12/17 13:42:42;;;;;;;187.37;38.70;;;8.70;99.90;;;;;;4086080;29;20229;-94
2021/12/17 13:45:25;;;;;;;185.53;40.37;;;8.60;99.90;;;;;;4098153;28;20206;-95
2021/12/17 13:47:28;;;;;;;190.40;40.20;;;8.60;99.90;;;;;;4100897;28;20262;-93
2021/12/17 13:49:32;;;;;;;202.20;40.60;;;8.50;99.90;;;;;;4125667;28;20185;-93